Malcolm, Alabama
Current Conditions -  °F | °C
As of 10:56 AM on Tuesday 21 Oct 2014 (Local Time) from KMOB Reporting Station
Clear Clear  
Wind Chill: 72°   Ceiling: Unl
Heat Index: 72°   Visibility: 10mi
Dew Point: 53°   Wind: 10mph
Humidity: 51%   Direction: 40°NE
Pressure: 30.07"   Gusts: NA
Location:  31.19°N, 88.01°W
Report Text: KMOB 211556Z 04009KT 10SM CLR 22/12 A3007 RMK AO2 SLP181 T02220117
Loading
Personal Weather Stations






























Interactive Weather Map
Tropical Storm Tracking
New forecast layout! Learn more

10-Day Weather Forecast

Advertisements
Track Severe Weather on mobile